createdAt,value
2023-02-13T00:00:47.773Z,6.91
2023-02-13T00:03:23.539Z,7.21
2023-02-13T00:05:50.866Z,7.20
2023-02-13T00:08:18.572Z,6.82
2023-02-13T00:10:46.932Z,6.65
2023-02-13T00:13:14.638Z,6.79
2023-02-13T00:15:41.994Z,6.50
2023-02-13T00:18:09.595Z,6.80
2023-02-13T00:20:37.121Z,6.92
2023-02-13T00:23:04.671Z,7.13
2023-02-13T00:25:31.921Z,7.20
2023-02-13T00:27:59.607Z,6.21
2023-02-13T00:30:28.030Z,6.23
2023-02-13T00:32:55.653Z,6.11
2023-02-13T00:35:24.628Z,6.00
2023-02-13T00:37:53.408Z,6.02
2023-02-13T00:40:25.047Z,5.89
2023-02-13T00:42:52.597Z,5.96
2023-02-13T00:45:19.825Z,6.09
2023-02-13T00:47:48.194Z,5.88
2023-02-13T00:50:15.759Z,5.81
2023-02-13T00:52:43.334Z,5.95
2023-02-13T00:55:10.566Z,5.84
2023-02-13T00:57:38.184Z,5.73
2023-02-13T01:00:16.378Z,6.13
2023-02-13T01:02:43.914Z,6.00
2023-02-13T01:05:11.975Z,5.99
2023-02-13T01:07:39.714Z,5.86
2023-02-13T01:10:07.471Z,6.11
2023-02-13T01:12:35.091Z,6.16
2023-02-13T01:15:02.935Z,6.04
2023-02-13T01:17:30.598Z,5.95
2023-02-13T01:19:57.895Z,5.83
2023-02-13T01:22:25.529Z,5.95
2023-02-13T01:24:52.829Z,5.64
2023-02-13T01:27:20.966Z,5.73
2023-02-13T01:29:48.803Z,5.78
2023-02-13T01:32:17.414Z,5.80
2023-02-13T01:34:45.387Z,5.84
2023-02-13T01:37:13.717Z,5.83
2023-02-13T01:39:41.017Z,5.82
2023-02-13T01:42:17.565Z,5.87
2023-02-13T01:44:55.016Z,5.85
2023-02-13T01:47:49.727Z,5.78
2023-02-13T01:50:30.541Z,5.79
2023-02-13T01:53:06.372Z,5.99
2023-02-13T01:55:37.995Z,6.05
2023-02-13T01:58:12.658Z,5.83
2023-02-13T02:00:40.415Z,5.96
2023-02-13T02:03:13.782Z,5.87
2023-02-13T02:05:42.922Z,6.11
2023-02-13T02:08:12.735Z,5.83
2023-02-13T02:10:41.090Z,5.73
2023-02-13T02:13:14.210Z,5.96
2023-02-13T02:15:43.274Z,6.06
2023-02-13T02:18:23.307Z,5.84
2023-02-13T02:21:43.037Z,5.79
2023-02-13T02:24:42.179Z,5.41
2023-02-13T02:27:33.578Z,5.50
2023-02-13T02:30:38.811Z,5.77
2023-02-13T02:33:27.861Z,5.80
2023-02-13T02:36:17.415Z,5.77
2023-02-13T02:39:09.083Z,5.99
2023-02-13T02:41:58.741Z,6.14
2023-02-13T02:44:52.465Z,6.29
2023-02-13T02:48:00.077Z,6.27
2023-02-13T02:50:40.287Z,6.50
2023-02-13T02:53:53.066Z,6.62
2023-02-13T02:56:25.587Z,6.28
2023-02-13T02:59:30.085Z,6.27
2023-02-13T03:02:19.925Z,6.49
2023-02-13T03:05:13.473Z,6.59
2023-02-13T03:07:41.015Z,6.29
2023-02-13T03:10:30.612Z,6.56
2023-02-13T03:13:21.828Z,6.58
2023-02-13T03:16:11.624Z,6.59
2023-02-13T03:19:01.039Z,6.66
2023-02-13T03:22:08.319Z,6.72
2023-02-13T03:24:58.613Z,6.81
2023-02-13T03:27:56.837Z,6.93
2023-02-13T03:30:39.120Z,6.86
2023-02-13T03:33:32.124Z,6.64
2023-02-13T03:36:33.621Z,6.57
2023-02-13T03:39:16.334Z,6.50
2023-02-13T03:41:53.138Z,6.23
2023-02-13T03:44:31.248Z,6.05
2023-02-13T03:47:00.993Z,6.19
2023-02-13T03:49:55.739Z,6.17
2023-02-13T03:52:46.031Z,6.26
2023-02-13T03:55:38.783Z,6.11
2023-02-13T03:58:31.742Z,6.33
2023-02-13T04:01:02.870Z,6.56
2023-02-13T04:03:45.232Z,6.59
2023-02-13T04:06:16.947Z,6.78
2023-02-13T04:08:44.206Z,6.91
2023-02-13T04:11:49.808Z,6.96
2023-02-13T04:14:35.746Z,6.76
2023-02-13T04:17:08.410Z,6.94
2023-02-13T04:19:35.944Z,7.00
2023-02-13T04:22:03.667Z,7.31
2023-02-13T04:24:31.499Z,7.20
2023-02-13T04:26:59.418Z,7.18
2023-02-13T04:29:27.340Z,7.22
2023-02-13T04:31:55.066Z,7.29
2023-02-13T04:34:22.405Z,7.38
2023-02-13T04:36:50.039Z,7.52
2023-02-13T04:39:17.240Z,7.45
2023-02-13T04:41:44.931Z,7.55
2023-02-13T04:44:12.331Z,7.76
2023-02-13T04:46:40.035Z,7.99
2023-02-13T04:49:07.302Z,7.98
2023-02-13T04:51:34.852Z,7.74
2023-02-13T04:54:02.153Z,7.77
2023-02-13T04:56:29.771Z,7.81
2023-02-13T04:58:57.003Z,7.83
2023-02-13T05:01:24.666Z,7.69
2023-02-13T05:03:52.000Z,7.81
2023-02-13T05:06:19.658Z,7.78
2023-02-13T05:08:46.903Z,7.48
2023-02-13T05:11:14.463Z,7.45
2023-02-13T05:13:41.855Z,7.54
2023-02-13T05:16:09.564Z,7.64
2023-02-13T05:18:36.863Z,7.79
2023-02-13T05:21:22.980Z,7.82
2023-02-13T05:23:50.240Z,7.63
2023-02-13T05:26:17.816Z,7.71
2023-02-13T05:29:03.800Z,7.77
2023-02-13T05:31:31.407Z,7.74
2023-02-13T05:33:58.634Z,7.59
2023-02-13T05:36:26.223Z,7.74
2023-02-13T05:38:53.455Z,7.55
2023-02-13T05:41:20.996Z,7.53
2023-02-13T05:43:48.229Z,7.64
2023-02-13T05:46:15.928Z,7.74
2023-02-13T05:48:43.190Z,7.57
2023-02-13T05:51:10.708Z,7.66
2023-02-13T05:53:38.312Z,7.66
2023-02-13T05:56:06.460Z,7.64
2023-02-13T05:58:34.399Z,7.46
2023-02-13T06:01:02.440Z,7.41
2023-02-13T06:03:31.282Z,7.80
2023-02-13T06:05:59.582Z,7.68
2023-02-13T06:08:26.935Z,7.95
2023-02-13T06:10:54.692Z,7.93
2023-02-13T06:13:21.932Z,7.54
2023-02-13T06:15:50.872Z,7.59
2023-02-13T06:18:18.208Z,7.60
2023-02-13T06:20:45.915Z,7.78
2023-02-13T06:23:13.720Z,8.07
2023-02-13T06:25:41.250Z,8.13
2023-02-13T06:28:08.584Z,8.18
2023-02-13T06:30:36.258Z,8.17
2023-02-13T06:33:03.698Z,8.30
2023-02-13T06:35:31.333Z,8.33
2023-02-13T06:37:58.573Z,8.33
2023-02-13T06:40:26.301Z,8.42
2023-02-13T06:42:53.644Z,8.38
2023-02-13T06:45:21.194Z,8.19
2023-02-13T06:47:49.233Z,8.07
2023-02-13T06:50:17.597Z,8.23
2023-02-13T06:52:49.949Z,8.49
2023-02-13T06:55:17.908Z,8.09
2023-02-13T06:57:45.848Z,8.31
2023-02-13T07:00:15.615Z,8.48
2023-02-13T07:02:44.602Z,8.55
2023-02-13T07:05:13.383Z,8.38
2023-02-13T07:07:42.439Z,8.74
2023-02-13T07:10:12.615Z,9.04
2023-02-13T07:12:40.127Z,8.68
2023-02-13T07:15:08.318Z,8.84
2023-02-13T07:17:36.893Z,8.67
2023-02-13T07:20:06.321Z,8.84
2023-02-13T07:22:33.636Z,8.82
2023-02-13T07:25:01.648Z,9.05
2023-02-13T07:27:29.493Z,8.68
2023-02-13T07:29:57.770Z,9.06
2023-02-13T07:32:25.745Z,9.45
2023-02-13T07:35:01.634Z,9.58
2023-02-13T07:37:31.401Z,9.30
2023-02-13T07:39:59.038Z,9.91
2023-02-13T07:42:26.354Z,10.04
2023-02-13T07:44:53.896Z,10.03
2023-02-13T07:47:21.118Z,9.94
2023-02-13T07:49:48.625Z,10.18
2023-02-13T07:52:15.845Z,10.62
2023-02-13T07:54:47.706Z,10.05
2023-02-13T07:57:15.678Z,9.93
2023-02-13T07:59:43.366Z,9.80
2023-02-13T08:02:14.783Z,9.60
2023-02-13T08:04:49.075Z,9.67
2023-02-13T08:07:17.923Z,8.90
2023-02-13T08:10:05.018Z,9.59
2023-02-13T08:12:35.051Z,9.68
2023-02-13T08:15:03.898Z,9.69
2023-02-13T08:17:31.109Z,9.72
2023-02-13T08:19:58.885Z,10.36
2023-02-13T08:22:26.299Z,10.53
2023-02-13T08:24:54.306Z,10.86
2023-02-13T08:27:23.087Z,11.56
2023-02-13T08:29:51.324Z,11.74
2023-02-13T08:32:18.719Z,10.42
2023-02-13T08:34:46.428Z,9.98
2023-02-13T08:37:13.630Z,10.43
2023-02-13T08:39:41.261Z,10.42
2023-02-13T08:42:08.676Z,10.47
2023-02-13T08:44:37.451Z,11.26
2023-02-13T08:47:04.657Z,11.44
2023-02-13T08:49:32.580Z,11.40
2023-02-13T08:52:04.529Z,11.23
2023-02-13T08:54:34.440Z,11.10
2023-02-13T08:57:01.912Z,11.15
2023-02-13T08:59:29.617Z,12.26
2023-02-13T09:01:58.191Z,12.50
2023-02-13T09:04:25.669Z,13.46
2023-02-13T09:06:53.043Z,14.36
2023-02-13T09:09:20.828Z,16.46
2023-02-13T09:11:48.190Z,17.24
2023-02-13T09:14:15.732Z,17.18
2023-02-13T09:16:43.050Z,17.19
2023-02-13T09:19:10.666Z,16.58
2023-02-13T09:21:37.841Z,17.20
2023-02-13T09:24:10.535Z,17.56
2023-02-13T09:26:38.158Z,16.60
2023-02-13T09:29:05.632Z,17.56
2023-02-13T09:31:33.062Z,16.56
2023-02-13T09:34:00.930Z,15.30
2023-02-13T09:36:28.208Z,17.05
2023-02-13T09:38:57.703Z,17.92
2023-02-13T09:41:33.664Z,19.18
2023-02-13T09:44:07.363Z,19.66
2023-02-13T09:46:38.182Z,20.77
2023-02-13T09:49:14.034Z,19.91
2023-02-13T09:51:47.828Z,20.18
2023-02-13T09:54:19.210Z,19.83
2023-02-13T09:56:50.189Z,20.25
2023-02-13T09:59:51.591Z,20.14
2023-02-13T10:02:21.789Z,19.78
2023-02-13T10:05:10.781Z,19.99
2023-02-13T10:07:57.839Z,20.03
2023-02-13T10:10:25.450Z,19.67
2023-02-13T10:13:03.626Z,19.33
2023-02-13T10:16:09.230Z,16.53
2023-02-13T10:18:50.574Z,14.43
2023-02-13T10:21:24.814Z,13.71
2023-02-13T10:23:56.372Z,13.07
2023-02-13T10:26:43.403Z,13.24
2023-02-13T10:29:35.007Z,12.76
2023-02-13T10:32:09.255Z,11.94
2023-02-13T10:34:44.384Z,12.24
2023-02-13T10:37:20.991Z,12.62
2023-02-13T10:39:51.449Z,11.36
2023-02-13T10:42:41.547Z,12.51
2023-02-13T10:45:53.690Z,12.16
2023-02-13T10:48:27.222Z,11.82
2023-02-13T10:51:13.409Z,12.32
2023-02-13T10:53:40.810Z,12.85
2023-02-13T10:56:23.938Z,13.05
2023-02-13T10:59:28.980Z,13.29
2023-02-13T11:02:21.009Z,13.40
2023-02-13T11:04:50.945Z,13.59
2023-02-13T11:07:22.130Z,13.28
2023-02-13T11:09:53.361Z,13.32
2023-02-13T11:12:23.792Z,13.09
2023-02-13T11:15:04.281Z,13.34
2023-02-13T11:17:36.380Z,12.97
2023-02-13T11:20:28.511Z,14.08
2023-02-13T11:22:57.317Z,12.69
2023-02-13T11:25:31.655Z,12.05
2023-02-13T11:28:16.571Z,11.52
2023-02-13T11:30:44.154Z,11.05
2023-02-13T11:33:17.552Z,11.11
2023-02-13T11:35:46.951Z,10.67
2023-02-13T11:38:18.328Z,10.51
2023-02-13T11:40:50.204Z,9.93
2023-02-13T11:43:28.496Z,10.07
2023-02-13T11:46:07.097Z,9.89
2023-02-13T11:48:35.365Z,9.85
2023-02-13T11:51:04.301Z,9.46
2023-02-13T11:53:39.547Z,9.61
2023-02-13T11:56:11.066Z,9.65
2023-02-13T11:58:39.347Z,9.90
2023-02-13T12:01:20.945Z,9.96
2023-02-13T12:04:07.805Z,9.96
2023-02-13T12:06:40.008Z,9.99
2023-02-13T12:09:15.721Z,10.45
2023-02-13T12:11:49.925Z,10.62
2023-02-13T12:14:21.592Z,9.96
2023-02-13T12:17:00.623Z,10.33
2023-02-13T12:19:41.275Z,9.79
2023-02-13T12:22:18.864Z,9.60
2023-02-13T12:24:52.268Z,9.60
2023-02-13T12:27:46.341Z,9.48
2023-02-13T12:30:39.760Z,9.60
2023-02-13T12:33:22.383Z,9.58
2023-02-13T12:35:50.145Z,9.41
2023-02-13T12:38:47.212Z,9.87
2023-02-13T12:41:18.931Z,10.09
2023-02-13T12:44:00.730Z,10.19
2023-02-13T12:46:54.446Z,9.92
2023-02-13T12:49:46.346Z,9.59
2023-02-13T12:52:20.075Z,9.45
2023-02-13T12:55:03.647Z,9.40
2023-02-13T12:58:00.880Z,9.59
2023-02-13T13:01:06.178Z,9.76
2023-02-13T13:03:51.760Z,9.66
2023-02-13T13:06:46.732Z,9.34
2023-02-13T13:09:20.000Z,9.26
2023-02-13T13:12:09.557Z,9.21
2023-02-13T13:14:53.972Z,9.18
2023-02-13T13:17:24.199Z,9.28
2023-02-13T13:20:14.986Z,9.79
2023-02-13T13:23:21.484Z,9.86
2023-02-13T13:25:55.753Z,9.67
2023-02-13T13:28:26.291Z,9.93
2023-02-13T13:30:53.905Z,10.02
2023-02-13T13:33:24.291Z,9.92
2023-02-13T13:36:06.945Z,9.79
2023-02-13T13:38:52.018Z,9.86
2023-02-13T13:41:38.889Z,9.73
2023-02-13T13:44:18.793Z,9.39
2023-02-13T13:46:54.996Z,9.59
2023-02-13T13:49:45.364Z,10.18
2023-02-13T13:52:37.582Z,10.03
2023-02-13T13:55:07.032Z,10.44
2023-02-13T13:57:34.285Z,10.59
2023-02-13T14:00:14.125Z,10.38
2023-02-13T14:02:44.780Z,10.63
2023-02-13T14:05:30.821Z,10.37
2023-02-13T14:08:01.659Z,10.08
2023-02-13T14:10:29.377Z,10.01
2023-02-13T14:12:56.552Z,9.43
2023-02-13T14:15:44.668Z,9.62
2023-02-13T14:18:15.140Z,9.86
2023-02-13T14:20:52.439Z,9.41
2023-02-13T14:23:50.844Z,9.43
2023-02-13T14:26:18.470Z,9.14
2023-02-13T14:28:48.755Z,9.26
2023-02-13T14:31:35.666Z,9.33
2023-02-13T14:34:05.534Z,9.21
2023-02-13T14:36:36.140Z,8.86
2023-02-13T14:39:03.485Z,8.82
2023-02-13T14:41:55.198Z,8.72
2023-02-13T14:44:34.103Z,8.70
2023-02-13T14:47:05.876Z,9.20
2023-02-13T14:49:37.231Z,9.23
2023-02-13T14:52:07.739Z,9.34
2023-02-13T14:54:42.683Z,9.42
2023-02-13T14:57:38.892Z,9.00
2023-02-13T15:00:28.752Z,8.93
2023-02-13T15:03:02.544Z,8.70
2023-02-13T15:05:35.062Z,8.84
2023-02-13T15:08:05.444Z,8.72
2023-02-13T15:10:49.520Z,8.43
2023-02-13T15:13:21.917Z,8.18
2023-02-13T15:15:59.512Z,8.32
2023-02-13T15:18:52.546Z,8.13
2023-02-13T15:21:22.900Z,8.05
2023-02-13T15:23:55.519Z,8.14
2023-02-13T15:26:26.509Z,7.87
2023-02-13T15:29:07.429Z,7.60
2023-02-13T15:31:38.872Z,7.69
2023-02-13T15:34:34.308Z,7.41
2023-02-13T15:37:03.129Z,7.55
2023-02-13T15:39:32.320Z,7.47
2023-02-13T15:42:02.887Z,7.59
2023-02-13T15:44:34.446Z,7.37
2023-02-13T15:47:15.722Z,7.59
2023-02-13T15:49:46.986Z,7.58
2023-02-13T15:52:31.875Z,7.46
2023-02-13T15:55:00.089Z,7.10
2023-02-13T15:57:28.627Z,7.20
2023-02-13T15:59:58.807Z,7.11
2023-02-13T16:02:42.288Z,7.22
2023-02-13T16:05:13.068Z,7.24
2023-02-13T16:08:01.462Z,7.13
2023-02-13T16:10:35.582Z,6.99
2023-02-13T16:13:06.074Z,6.85
2023-02-13T16:15:37.207Z,6.83
2023-02-13T16:18:06.398Z,6.81
2023-02-13T16:20:35.342Z,6.65
2023-02-13T16:23:16.819Z,6.71
2023-02-13T16:25:46.670Z,6.73
2023-02-13T16:28:21.157Z,6.52
2023-02-13T16:30:59.471Z,6.66
2023-02-13T16:33:32.147Z,6.70
2023-02-13T16:36:11.931Z,6.67
2023-02-13T16:38:44.498Z,6.33
2023-02-13T16:41:25.912Z,6.47
2023-02-13T16:44:00.648Z,6.49
2023-02-13T16:46:28.179Z,6.49
2023-02-13T16:49:01.305Z,6.52
2023-02-13T16:51:50.557Z,6.57
2023-02-13T16:54:34.188Z,6.43
2023-02-13T16:57:04.334Z,6.45
2023-02-13T16:59:40.456Z,6.56
2023-02-13T17:02:14.501Z,6.66
2023-02-13T17:04:56.668Z,6.58
2023-02-13T17:07:33.975Z,6.42
2023-02-13T17:10:05.257Z,6.50
2023-02-13T17:12:38.975Z,6.48
2023-02-13T17:15:12.394Z,6.64
2023-02-13T17:17:40.573Z,6.46
2023-02-13T17:20:15.731Z,6.48
2023-02-13T17:22:47.589Z,6.27
2023-02-13T17:25:23.544Z,6.40
2023-02-13T17:27:56.910Z,6.36
2023-02-13T17:30:33.211Z,6.16
2023-02-13T17:33:07.698Z,6.30
2023-02-13T17:35:35.572Z,6.32
2023-02-13T17:38:03.474Z,6.22
2023-02-13T17:40:32.040Z,6.41
2023-02-13T17:42:59.835Z,6.00
2023-02-13T17:45:31.904Z,6.00
2023-02-13T17:47:59.589Z,5.99
2023-02-13T17:50:28.666Z,6.11
2023-02-13T17:52:57.449Z,6.34
2023-02-13T17:55:27.294Z,6.05
2023-02-13T17:57:56.837Z,6.18
2023-02-13T18:00:35.546Z,6.04
2023-02-13T18:03:04.194Z,6.12
2023-02-13T18:05:33.204Z,6.06
2023-02-13T18:08:03.534Z,5.70
2023-02-13T18:10:33.697Z,5.81
2023-02-13T18:13:05.040Z,5.85
2023-02-13T18:15:39.143Z,5.89
2023-02-13T18:18:06.779Z,5.65
2023-02-13T18:20:34.867Z,5.92
2023-02-13T18:23:02.474Z,6.00
2023-02-13T18:25:30.048Z,5.91
2023-02-13T18:27:57.739Z,6.08
2023-02-13T18:30:25.560Z,5.83
2023-02-13T18:32:55.590Z,5.75
2023-02-13T18:35:23.585Z,5.61
2023-02-13T18:37:51.277Z,5.79
2023-02-13T18:40:19.042Z,5.79
2023-02-13T18:42:46.763Z,5.71
2023-02-13T18:45:14.208Z,5.78
2023-02-13T18:47:42.189Z,5.71
2023-02-13T18:50:10.019Z,5.65
2023-02-13T18:52:37.650Z,5.68
2023-02-13T18:55:07.172Z,5.64
2023-02-13T18:57:35.134Z,5.79
2023-02-13T19:00:04.617Z,5.92
2023-02-13T19:02:33.518Z,5.84
2023-02-13T19:05:01.445Z,5.85
2023-02-13T19:07:29.393Z,5.43
2023-02-13T19:09:56.751Z,5.48
2023-02-13T19:12:24.713Z,5.53
2023-02-13T19:14:52.054Z,5.59
2023-02-13T19:17:19.638Z,5.65
2023-02-13T19:19:48.860Z,5.53
2023-02-13T19:22:16.737Z,5.53
2023-02-13T19:24:44.365Z,5.52
2023-02-13T19:27:12.048Z,5.56
2023-02-13T19:29:39.306Z,5.48
2023-02-13T19:32:06.839Z,5.46
2023-02-13T19:34:34.328Z,5.71
2023-02-13T19:37:01.899Z,5.71
2023-02-13T19:39:29.176Z,5.74
2023-02-13T19:41:56.831Z,5.39
2023-02-13T19:44:24.183Z,5.58
2023-02-13T19:46:51.945Z,5.50
2023-02-13T19:49:21.136Z,5.67
2023-02-13T19:51:48.830Z,5.78
2023-02-13T19:54:16.044Z,5.76
2023-02-13T19:56:43.892Z,5.55
2023-02-13T19:59:13.533Z,5.58
2023-02-13T20:01:42.972Z,5.90
2023-02-13T20:04:11.778Z,5.69
2023-02-13T20:06:39.602Z,5.74
2023-02-13T20:09:15.912Z,5.85
2023-02-13T20:11:45.475Z,5.91
2023-02-13T20:14:15.128Z,5.92
2023-02-13T20:16:45.703Z,5.95
2023-02-13T20:19:13.794Z,5.60
2023-02-13T20:21:42.572Z,5.32
2023-02-13T20:24:11.097Z,5.32
2023-02-13T20:26:39.604Z,5.42
2023-02-13T20:29:07.378Z,5.51
2023-02-13T20:31:35.696Z,5.41
2023-02-13T20:34:06.131Z,5.23
2023-02-13T20:36:33.916Z,5.41
2023-02-13T20:39:04.794Z,5.50
2023-02-13T20:41:34.761Z,5.19
2023-02-13T20:44:05.326Z,5.11
2023-02-13T20:46:35.201Z,5.26
2023-02-13T20:49:02.689Z,5.39
2023-02-13T20:51:30.481Z,5.34
2023-02-13T20:53:59.092Z,5.26
2023-02-13T20:56:28.410Z,5.34
2023-02-13T20:58:58.554Z,5.08
2023-02-13T21:01:32.573Z,5.25
2023-02-13T21:04:00.149Z,5.30
2023-02-13T21:06:30.928Z,5.23
2023-02-13T21:08:58.597Z,5.16
2023-02-13T21:11:28.464Z,5.13
2023-02-13T21:13:57.394Z,5.14
2023-02-13T21:16:27.499Z,5.26
2023-02-13T21:18:57.866Z,5.32
2023-02-13T21:21:28.576Z,5.34
2023-02-13T21:23:57.340Z,5.37
2023-02-13T21:26:26.230Z,5.58
2023-02-13T21:28:54.227Z,5.50
2023-02-13T21:31:29.499Z,5.58
2023-02-13T21:34:06.198Z,5.46
2023-02-13T21:36:37.588Z,5.58
2023-02-13T21:39:07.350Z,5.50
2023-02-13T21:41:35.118Z,5.47
2023-02-13T21:44:02.403Z,5.39
2023-02-13T21:46:32.133Z,5.44
2023-02-13T21:49:05.169Z,5.12
2023-02-13T21:51:35.289Z,5.19
2023-02-13T21:54:04.316Z,5.28
2023-02-13T21:56:34.743Z,5.06
2023-02-13T21:59:02.398Z,5.26
2023-02-13T22:01:44.958Z,4.96
2023-02-13T22:04:12.783Z,5.29
2023-02-13T22:06:40.665Z,5.26
2023-02-13T22:09:13.387Z,5.14
2023-02-13T22:11:41.938Z,5.05
2023-02-13T22:14:14.442Z,5.16
2023-02-13T22:16:42.685Z,5.10
2023-02-13T22:19:13.659Z,5.13
2023-02-13T22:21:41.766Z,4.89
2023-02-13T22:24:09.502Z,5.20
2023-02-13T22:26:40.199Z,5.29
2023-02-13T22:29:12.437Z,5.31
2023-02-13T22:31:40.818Z,5.24
2023-02-13T22:34:08.385Z,5.23
2023-02-13T22:36:39.197Z,5.28
2023-02-13T22:39:08.377Z,5.21
2023-02-13T22:41:36.031Z,5.14
2023-02-13T22:44:03.689Z,4.95
2023-02-13T22:46:32.691Z,5.26
2023-02-13T22:49:00.356Z,5.26
2023-02-13T22:51:31.553Z,5.07
2023-02-13T22:53:59.804Z,5.00
2023-02-13T22:56:29.492Z,5.17
2023-02-13T22:58:57.191Z,5.02
2023-02-13T23:01:27.086Z,5.06
2023-02-13T23:03:54.874Z,5.06
2023-02-13T23:06:23.564Z,5.11
2023-02-13T23:08:53.443Z,5.21
2023-02-13T23:11:44.548Z,5.03
2023-02-13T23:14:12.708Z,5.14
2023-02-13T23:17:00.183Z,5.25
2023-02-13T23:19:29.809Z,5.31
2023-02-13T23:21:58.827Z,5.29
2023-02-13T23:24:26.514Z,5.09
2023-02-13T23:26:54.141Z,5.12
2023-02-13T23:29:21.628Z,5.04
2023-02-13T23:31:49.418Z,4.84
2023-02-13T23:34:16.867Z,5.13
2023-02-13T23:36:44.484Z,5.06
2023-02-13T23:39:11.835Z,4.96
2023-02-13T23:41:39.662Z,4.98
2023-02-13T23:44:06.906Z,5.08
2023-02-13T23:46:34.569Z,5.05
2023-02-13T23:49:02.060Z,5.09
2023-02-13T23:51:29.703Z,5.10
2023-02-13T23:53:57.540Z,4.97
2023-02-13T23:56:25.588Z,4.99
2023-02-13T23:58:55.744Z,5.03
